ESMT/HAD METAR and TAF weather

Enter ICAO airport designator
Station Type Date Time Source
ESMT METAR 2018/04/23 11:20 UTC NOAA

ESMT 231120Z 28015KT 9999 SCT014 12/09 Q1006


Station Type Date Time Source
ESMT Decoded METAR 2018/04/23 11:20 UTC NOAA

Halmstad Swedish Air Force Base , Sweden (ESMT) 56-41N 012-50E
Apr 23, 2018 - 07:20 AM EDT / 2018.04.23 1120 UTC
Wind: from the W (280 degrees) at 17 MPH (15 KT):0
Visibility: greater than 7 mile(s):0
Sky conditions: partly cloudy
Temperature: 53 F (12 C)
Dew Point: 48 F (9 C)
Relative Humidity: 81%
Pressure (altimeter): 29.71 in. Hg (1006 hPa)
ob: ESMT 231120Z 28015KT 9999 SCT014 12/09 Q1006
cycle: 11

Station Type Date Time Source
ESMT TAF 2017/04/24 06:33 UTC NOAA

TAF TAF ESMT 240513Z 2406/2506 22018KT 9999 BKN018
TEMPO 2406/2413 22018G30KT 4000 RADZ BKN008
TEMPO 2413/2415 24020G30KT 4000 SHRA BKN014 SCT020CB


Example: see airport list